Time;durP1;ratioP1;P1;durP2;ratioP2;P2;SDS_P1;SDS_P2;PMS_P1;PMS_P2;Temp;Humidity;BMP_temperature;BMP_pressure;BME280_temperature;BME280_humidity;BME280_pressure;Samples;Min_cycle;Max_cycle;Signal;HPM_P1;HPM_P2
2021/07/15 00:01:43;;;;;;;20.33;3.37;;;;;;;;;;5027290;28;20180;-60
2021/07/15 00:04:11;;;;;;;12.60;2.50;;;;;;;;;;5027089;28;20417;-60
2021/07/15 00:06:36;;;;;;;12.53;2.60;;;;;;;;;;5021693;28;20301;-61
2021/07/15 00:09:03;;;;;;;8.90;2.90;;;;;;;;;;5020607;28;20270;-60
2021/07/15 00:11:28;;;;;;;19.50;2.90;;;;;;;;;;5011015;28;20190;-62
2021/07/15 00:13:54;;;;;;;13.43;2.87;;;;;;;;;;5011680;28;20312;-60
2021/07/15 00:16:19;;;;;;;16.20;2.87;;;;;;;;;;5022941;28;20188;-59
2021/07/15 00:18:46;;;;;;;16.67;2.53;;;;;;;;;;5017566;28;20248;-60
2021/07/15 00:21:12;;;;;;;9.20;2.90;;;;;;;;;;5022024;28;20257;-61
2021/07/15 00:23:38;;;;;;;14.00;3.13;;;;;;;;;;5017863;28;20212;-61
2021/07/15 00:26:04;;;;;;;8.67;3.37;;;;;;;;;;5026686;28;20270;-60
2021/07/15 00:28:30;;;;;;;7.50;2.83;;;;;;;;;;5015688;28;20372;-61
2021/07/15 00:30:55;;;;;;;6.80;3.20;;;;;;;;;;5027342;28;20652;-60
2021/07/15 00:33:20;;;;;;;5.23;3.00;;;;;;;;;;5023406;28;20206;-61
2021/07/15 00:35:45;;;;;;;6.13;2.80;;;;;;;;;;5011354;28;20643;-60
2021/07/15 00:38:10;;;;;;;5.07;3.20;;;;;;;;;;5017804;28;20322;-61
2021/07/15 00:40:36;;;;;;;6.63;2.80;;;;;;;;;;5017281;28;20186;-59
2021/07/15 00:43:01;;;;;;;6.27;2.70;;;;;;;;;;5019907;28;20228;-60
2021/07/15 00:45:27;;;;;;;6.13;2.40;;;;;;;;;;5015633;28;20197;-60
2021/07/15 00:47:52;;;;;;;6.13;2.70;;;;;;;;;;5028891;28;20202;-61
2021/07/15 00:50:19;;;;;;;13.73;2.90;;;;;;;;;;5023203;28;20183;-60
2021/07/15 00:52:44;;;;;;;8.37;2.77;;;;;;;;;;5022782;28;20854;-60
2021/07/15 00:55:14;;;;;;;4.90;2.20;;;;;;;;;;5027251;28;20266;-61
2021/07/15 00:57:39;;;;;;;12.07;2.43;;;;;;;;;;5026429;28;20194;-62
2021/07/15 01:00:06;;;;;;;8.60;2.40;;;;;;;;;;5024387;28;20562;-61
2021/07/15 01:02:31;;;;;;;10.00;3.07;;;;;;;;;;5026362;28;20234;-60
2021/07/15 01:04:57;;;;;;;10.52;2.50;;;;;;;;;;5011074;28;20572;-61
2021/07/15 01:07:22;;;;;;;14.23;2.80;;;;;;;;;;5022215;28;20211;-62
2021/07/15 01:09:47;;;;;;;12.37;3.33;;;;;;;;;;5018355;28;20189;-59
2021/07/15 01:12:24;;;;;;;17.65;2.72;;;;;;;;;;5013655;28;20260;-60
2021/07/15 01:15:01;;;;;;;29.30;3.03;;;;;;;;;;5019597;28;20178;-61
2021/07/15 01:17:29;;;;;;;10.27;2.60;;;;;;;;;;5024702;28;20196;-60
2021/07/15 01:20:04;;;;;;;35.70;4.20;;;;;;;;;;5024656;28;20225;-60
2021/07/15 01:22:49;;;;;;;22.67;3.03;;;;;;;;;;5025440;28;20228;-60
2021/07/15 01:25:45;;;;;;;33.70;4.60;;;;;;;;;;5021134;28;20194;-62
2021/07/15 01:28:15;;;;;;;23.37;3.73;;;;;;;;;;5022889;28;20745;-61
2021/07/15 01:30:45;;;;;;;23.57;3.43;;;;;;;;;;5018214;28;20200;-60
2021/07/15 01:33:37;;;;;;;14.27;3.10;;;;;;;;;;5025421;28;20225;-61
2021/07/15 01:36:13;;;;;;;8.17;3.37;;;;;;;;;;5021823;28;20219;-61
2021/07/15 01:38:41;;;;;;;10.63;2.80;;;;;;;;;;5015621;28;20190;-61
2021/07/15 01:41:14;;;;;;;17.83;2.80;;;;;;;;;;5032113;28;20678;-60
2021/07/15 01:43:46;;;;;;;18.97;2.97;;;;;;;;;;5023632;28;20217;-60
2021/07/15 01:46:13;;;;;;;19.00;3.37;;;;;;;;;;5019602;28;20285;-60
2021/07/15 01:48:38;;;;;;;17.97;3.07;;;;;;;;;;5015029;28;20203;-60
2021/07/15 01:51:03;;;;;;;21.27;3.10;;;;;;;;;;5022772;28;20240;-60
2021/07/15 01:53:29;;;;;;;25.83;4.30;;;;;;;;;;5025608;28;20203;-59
2021/07/15 01:55:55;;;;;;;18.80;3.87;;;;;;;;;;5015036;28;20204;-60
2021/07/15 01:58:21;;;;;;;21.90;3.30;;;;;;;;;;5024553;28;20233;-60
2021/07/15 02:00:47;;;;;;;20.40;3.10;;;;;;;;;;5006426;28;20219;-60
2021/07/15 02:03:13;;;;;;;22.17;3.50;;;;;;;;;;5029844;28;20255;-59
2021/07/15 02:05:39;;;;;;;23.60;3.00;;;;;;;;;;5031488;28;20646;-59
2021/07/15 02:08:06;;;;;;;34.90;4.53;;;;;;;;;;5026134;28;20214;-60
2021/07/15 02:10:32;;;;;;;32.07;3.47;;;;;;;;;;5021932;28;20774;-59
2021/07/15 02:12:57;;;;;;;21.27;3.30;;;;;;;;;;5018282;28;20211;-59
2021/07/15 02:15:26;;;;;;;28.20;3.83;;;;;;;;;;5022222;28;20670;-59
2021/07/15 02:17:52;;;;;;;18.57;3.57;;;;;;;;;;5028194;28;20716;-61
2021/07/15 02:20:19;;;;;;;16.87;4.73;;;;;;;;;;5033535;28;20191;-59
2021/07/15 02:22:45;;;;;;;17.30;3.50;;;;;;;;;;5028351;28;20222;-61
2021/07/15 02:25:11;;;;;;;14.57;4.23;;;;;;;;;;5025216;28;20194;-61
2021/07/15 02:27:37;;;;;;;10.37;3.27;;;;;;;;;;5020325;28;20350;-60
2021/07/15 02:30:08;;;;;;;21.23;3.87;;;;;;;;;;5023730;28;20743;-60
2021/07/15 02:32:33;;;;;;;10.20;3.23;;;;;;;;;;5030351;28;20285;-60
2021/07/15 02:35:01;;;;;;;12.90;4.30;;;;;;;;;;5031578;28;20266;-61
2021/07/15 02:37:28;;;;;;;12.17;3.37;;;;;;;;;;5031680;28;20185;-60
2021/07/15 02:39:53;;;;;;;14.47;3.97;;;;;;;;;;5023070;28;20667;-61
2021/07/15 02:42:19;;;;;;;19.83;4.00;;;;;;;;;;5017550;28;20207;-63
2021/07/15 02:44:44;;;;;;;21.87;4.67;;;;;;;;;;5017876;28;20186;-61
2021/07/15 02:47:09;;;;;;;24.97;4.43;;;;;;;;;;5027312;28;20260;-59
2021/07/15 02:49:37;;;;;;;17.03;3.97;;;;;;;;;;5029361;28;20615;-61
2021/07/15 02:52:02;;;;;;;21.43;4.93;;;;;;;;;;5034026;28;20203;-60
2021/07/15 02:54:27;;;;;;;15.23;4.20;;;;;;;;;;5038684;28;20249;-60
2021/07/15 02:57:02;;;;;;;18.00;5.20;;;;;;;;;;5029858;28;20191;-59
2021/07/15 02:59:56;;;;;;;23.10;4.07;;;;;;;;;;5029051;28;20186;-61
2021/07/15 03:02:24;;;;;;;25.10;4.13;;;;;;;;;;5025900;28;20734;-62
2021/07/15 03:05:05;;;;;;;13.80;4.07;;;;;;;;;;5017243;28;20198;-61
2021/07/15 03:07:31;;;;;;;11.07;3.57;;;;;;;;;;5021827;28;20636;-60
2021/07/15 03:09:57;;;;;;;27.20;4.33;;;;;;;;;;5025425;28;20205;-60
2021/07/15 03:12:23;;;;;;;22.37;3.70;;;;;;;;;;5013237;28;20202;-60
2021/07/15 03:14:50;;;;;;;15.87;3.73;;;;;;;;;;5018817;28;20190;-59
2021/07/15 03:17:19;;;;;;;35.97;4.30;;;;;;;;;;5026493;28;20198;-61
2021/07/15 03:19:45;;;;;;;14.40;3.97;;;;;;;;;;5027203;28;20194;-61
2021/07/15 03:22:11;;;;;;;16.63;4.17;;;;;;;;;;5026279;28;20289;-59
2021/07/15 03:24:38;;;;;;;21.97;3.93;;;;;;;;;;5024281;28;20270;-60
2021/07/15 03:27:04;;;;;;;14.20;3.53;;;;;;;;;;5027944;28;20198;-60
2021/07/15 03:29:31;;;;;;;26.57;3.70;;;;;;;;;;5027778;28;20185;-59
2021/07/15 03:31:56;;;;;;;20.43;3.50;;;;;;;;;;5028277;28;20203;-60
2021/07/15 03:34:22;;;;;;;25.10;3.80;;;;;;;;;;5037096;28;20170;-60
2021/07/15 03:36:50;;;;;;;17.40;3.90;;;;;;;;;;5029713;28;20264;-60
2021/07/15 03:39:16;;;;;;;20.80;3.77;;;;;;;;;;5030150;28;20190;-61
2021/07/15 03:41:42;;;;;;;20.83;3.40;;;;;;;;;;5021446;28;20190;-61
2021/07/15 03:44:08;;;;;;;21.00;3.97;;;;;;;;;;5012852;28;20186;-60
2021/07/15 03:46:33;;;;;;;19.03;3.83;;;;;;;;;;5027501;28;20617;-59
2021/07/15 03:48:59;;;;;;;21.80;3.70;;;;;;;;;;5023378;28;20943;-60
2021/07/15 03:51:24;;;;;;;17.13;3.67;;;;;;;;;;5026827;28;20187;-59
2021/07/15 03:53:50;;;;;;;26.47;4.80;;;;;;;;;;5024262;28;20238;-60
2021/07/15 03:56:16;;;;;;;23.80;4.33;;;;;;;;;;5026520;28;20175;-61
2021/07/15 03:58:43;;;;;;;30.97;5.00;;;;;;;;;;5016049;28;20191;-60
2021/07/15 04:01:10;;;;;;;20.23;4.90;;;;;;;;;;5024369;28;20192;-60
2021/07/15 04:03:35;;;;;;;18.07;4.80;;;;;;;;;;5022515;28;20255;-60
2021/07/15 04:06:01;;;;;;;13.67;4.00;;;;;;;;;;5014647;28;20278;-60
2021/07/15 04:08:27;;;;;;;34.20;4.67;;;;;;;;;;5022024;28;20214;-62
2021/07/15 04:10:54;;;;;;;22.37;3.73;;;;;;;;;;5027050;28;20673;-60
2021/07/15 04:13:21;;;;;;;22.37;3.70;;;;;;;;;;5012997;28;20195;-61
2021/07/15 04:16:05;;;;;;;23.97;4.47;;;;;;;;;;5025952;28;20669;-60
2021/07/15 04:18:33;;;;;;;18.47;3.33;;;;;;;;;;5020840;28;20231;-59
2021/07/15 04:20:59;;;;;;;23.63;4.00;;;;;;;;;;5019453;28;20187;-60
2021/07/15 04:23:24;;;;;;;13.10;3.90;;;;;;;;;;5019713;28;20245;-60
2021/07/15 04:25:53;;;;;;;11.53;3.60;;;;;;;;;;5024303;28;20209;-60
2021/07/15 04:28:19;;;;;;;17.10;4.43;;;;;;;;;;5024241;28;20344;-60
2021/07/15 04:30:47;;;;;;;20.23;4.57;;;;;;;;;;5025206;28;20266;-59
2021/07/15 04:33:13;;;;;;;11.70;3.77;;;;;;;;;;5020102;28;20296;-60
2021/07/15 04:35:38;;;;;;;16.33;4.10;;;;;;;;;;5025596;28;20287;-61
2021/07/15 04:38:04;;;;;;;5.27;3.23;;;;;;;;;;5024041;28;20178;-62
2021/07/15 04:40:30;;;;;;;13.33;3.63;;;;;;;;;;5020445;28;20189;-63
2021/07/15 04:43:03;;;;;;;14.47;3.97;;;;;;;;;;5022848;28;20198;-59
2021/07/15 04:45:28;;;;;;;15.00;3.40;;;;;;;;;;5022621;28;20201;-62
2021/07/15 04:47:54;;;;;;;9.53;3.60;;;;;;;;;;5021053;28;20202;-63
2021/07/15 04:50:24;;;;;;;15.13;3.37;;;;;;;;;;5013225;28;20201;-64
2021/07/15 04:52:53;;;;;;;7.63;3.20;;;;;;;;;;5024380;28;20206;-64
2021/07/15 04:55:20;;;;;;;10.87;3.60;;;;;;;;;;5015691;28;20183;-63
2021/07/15 04:57:47;;;;;;;8.37;3.23;;;;;;;;;;5029138;28;20523;-63
2021/07/15 05:00:13;;;;;;;12.30;3.63;;;;;;;;;;5029127;28;20777;-63
2021/07/15 05:02:39;;;;;;;9.20;3.60;;;;;;;;;;5023755;28;20214;-63
2021/07/15 05:05:08;;;;;;;12.17;3.90;;;;;;;;;;5025736;28;20188;-64
2021/07/15 05:07:36;;;;;;;9.83;4.03;;;;;;;;;;5015809;28;20205;-63
2021/07/15 05:10:03;;;;;;;14.60;4.00;;;;;;;;;;5017366;28;20183;-63
2021/07/15 05:12:28;;;;;;;10.93;3.47;;;;;;;;;;5022910;28;20302;-65
2021/07/15 05:14:54;;;;;;;6.40;3.80;;;;;;;;;;5033156;28;20266;-64
2021/07/15 05:17:19;;;;;;;10.00;3.10;;;;;;;;;;5026341;28;20202;-64
2021/07/15 05:19:44;;;;;;;10.23;3.47;;;;;;;;;;5024659;28;20194;-62
2021/07/15 05:22:10;;;;;;;6.13;3.03;;;;;;;;;;5021713;28;20206;-63
2021/07/15 05:24:35;;;;;;;3.73;3.23;;;;;;;;;;5015986;28;20262;-63
2021/07/15 05:27:01;;;;;;;6.57;2.70;;;;;;;;;;5023282;28;20252;-61
2021/07/15 05:29:26;;;;;;;6.30;3.50;;;;;;;;;;5022677;28;20197;-61
2021/07/15 05:31:52;;;;;;;9.53;3.67;;;;;;;;;;5018501;28;20289;-61
2021/07/15 05:34:19;;;;;;;7.70;2.78;;;;;;;;;;5023025;28;20174;-62
2021/07/15 05:36:44;;;;;;;12.60;3.50;;;;;;;;;;5023410;28;20185;-63
2021/07/15 05:39:10;;;;;;;10.10;3.30;;;;;;;;;;5028130;28;20175;-62
2021/07/15 05:41:35;;;;;;;7.43;3.13;;;;;;;;;;5023780;28;20175;-65
2021/07/15 05:44:00;;;;;;;3.45;2.78;;;;;;;;;;5031223;28;20229;-63
2021/07/15 05:46:26;;;;;;;8.07;3.03;;;;;;;;;;5028832;28;20228;-62
2021/07/15 05:48:51;;;;;;;5.80;3.30;;;;;;;;;;5029674;28;20202;-62
2021/07/15 05:51:17;;;;;;;4.80;2.70;;;;;;;;;;5031280;28;20174;-62
2021/07/15 05:53:42;;;;;;;2.72;2.38;;;;;;;;;;5029968;28;20255;-62
2021/07/15 05:56:07;;;;;;;3.70;2.75;;;;;;;;;;5027523;28;20174;-62
2021/07/15 05:58:32;;;;;;;7.13;2.90;;;;;;;;;;5023406;28;20183;-63
2021/07/15 06:00:57;;;;;;;7.25;2.88;;;;;;;;;;5022503;28;20767;-61
2021/07/15 06:03:23;;;;;;;4.22;2.83;;;;;;;;;;5030634;28;20218;-60
2021/07/15 06:05:48;;;;;;;5.78;2.72;;;;;;;;;;5024926;28;20190;-59
2021/07/15 06:08:13;;;;;;;7.00;2.42;;;;;;;;;;5018022;28;20620;-59
2021/07/15 06:10:38;;;;;;;7.22;2.85;;;;;;;;;;5026952;28;20189;-58
2021/07/15 06:13:03;;;;;;;3.35;2.97;;;;;;;;;;5022604;28;20658;-59
2021/07/15 06:15:29;;;;;;;5.65;3.08;;;;;;;;;;5024092;28;20603;-59
2021/07/15 06:17:54;;;;;;;8.05;3.13;;;;;;;;;;5021991;28;20201;-59
2021/07/15 06:20:19;;;;;;;3.67;2.67;;;;;;;;;;5029201;28;20692;-59
2021/07/15 06:22:45;;;;;;;5.57;2.17;;;;;;;;;;5023691;28;20257;-59
2021/07/15 06:25:11;;;;;;;5.35;1.92;;;;;;;;;;5018782;28;20234;-60
2021/07/15 06:27:37;;;;;;;3.67;2.20;;;;;;;;;;5029159;28;20203;-58
2021/07/15 06:30:04;;;;;;;2.25;2.05;;;;;;;;;;5024113;28;20592;-60
2021/07/15 06:32:29;;;;;;;4.53;2.40;;;;;;;;;;5012576;28;20202;-59
2021/07/15 06:34:54;;;;;;;3.93;2.30;;;;;;;;;;5021355;28;20528;-58
2021/07/15 06:37:24;;;;;;;4.53;2.10;;;;;;;;;;5040809;28;20482;-59
2021/07/15 06:39:49;;;;;;;1.70;1.60;;;;;;;;;;5038674;28;20688;-60
2021/07/15 06:42:14;;;;;;;3.45;1.73;;;;;;;;;;5031607;28;20237;-60
2021/07/15 06:44:39;;;;;;;2.93;2.07;;;;;;;;;;5029064;28;20178;-59
2021/07/15 06:47:07;;;;;;;3.33;1.70;;;;;;;;;;5021251;28;20501;-61
2021/07/15 06:49:32;;;;;;;2.30;1.70;;;;;;;;;;5027744;28;20185;-58
2021/07/15 06:51:57;;;;;;;1.92;1.67;;;;;;;;;;5027628;28;20577;-59
2021/07/15 06:54:22;;;;;;;5.93;2.15;;;;;;;;;;5016972;28;20187;-60
2021/07/15 06:56:48;;;;;;;3.85;1.90;;;;;;;;;;5029949;28;20244;-59
2021/07/15 06:59:13;;;;;;;1.60;1.48;;;;;;;;;;5021058;28;20175;-59
2021/07/15 07:01:38;;;;;;;2.65;1.88;;;;;;;;;;5016020;28;20660;-59
2021/07/15 07:04:03;;;;;;;3.57;1.77;;;;;;;;;;5027659;28;20447;-59
2021/07/15 07:06:28;;;;;;;2.28;1.95;;;;;;;;;;5035729;28;20423;-60
2021/07/15 07:08:53;;;;;;;1.67;1.57;;;;;;;;;;5026601;28;20191;-60
2021/07/15 07:11:19;;;;;;;3.47;1.63;;;;;;;;;;5020306;28;20843;-60
2021/07/15 07:13:44;;;;;;;3.43;1.60;;;;;;;;;;5018741;28;20275;-59
2021/07/15 07:16:09;;;;;;;4.65;1.90;;;;;;;;;;5023933;28;20422;-60
2021/07/15 07:18:34;;;;;;;4.97;1.60;;;;;;;;;;5027663;28;20246;-60
2021/07/15 07:21:00;;;;;;;1.85;1.50;;;;;;;;;;5020139;28;20501;-60
2021/07/15 07:23:25;;;;;;;1.52;1.30;;;;;;;;;;5022655;28;20744;-60
2021/07/15 07:25:50;;;;;;;3.30;1.75;;;;;;;;;;5024256;28;20191;-61
2021/07/15 07:28:16;;;;;;;2.28;1.70;;;;;;;;;;5028213;28;20265;-60
2021/07/15 07:30:41;;;;;;;3.67;1.45;;;;;;;;;;5020746;28;20171;-59
2021/07/15 07:33:06;;;;;;;1.40;1.30;;;;;;;;;;5029339;28;20198;-60
2021/07/15 07:35:31;;;;;;;3.70;2.13;;;;;;;;;;5024156;28;20456;-58
2021/07/15 07:37:56;;;;;;;3.73;1.60;;;;;;;;;;5014967;28;20421;-60
2021/07/15 07:40:21;;;;;;;1.85;1.40;;;;;;;;;;5028308;28;20441;-58
2021/07/15 07:42:47;;;;;;;1.48;1.38;;;;;;;;;;5026234;28;20244;-60
2021/07/15 07:45:12;;;;;;;1.35;1.00;;;;;;;;;;5028253;28;20179;-60
2021/07/15 07:47:38;;;;;;;1.27;1.17;;;;;;;;;;5029301;28;20633;-61
2021/07/15 07:50:04;;;;;;;2.30;1.25;;;;;;;;;;5021169;28;20199;-59
2021/07/15 07:52:30;;;;;;;1.65;1.25;;;;;;;;;;5019414;28;20257;-60
2021/07/15 07:54:56;;;;;;;1.43;1.33;;;;;;;;;;5012139;28;20583;-59
2021/07/15 07:57:21;;;;;;;1.45;1.35;;;;;;;;;;5044142;28;20424;-60
2021/07/15 07:59:46;;;;;;;1.67;1.57;;;;;;;;;;5022346;28;20240;-60
2021/07/15 08:02:12;;;;;;;2.47;1.30;;;;;;;;;;5015522;28;20203;-60
2021/07/15 08:04:37;;;;;;;1.83;1.73;;;;;;;;;;5030198;28;20186;-61
2021/07/15 08:07:03;;;;;;;2.10;2.00;;;;;;;;;;5026331;28;20206;-61
2021/07/15 08:09:30;;;;;;;1.90;1.80;;;;;;;;;;5027924;28;20227;-59
2021/07/15 08:11:56;;;;;;;2.22;1.80;;;;;;;;;;5026480;28;20190;-60
2021/07/15 08:14:21;;;;;;;1.83;1.73;;;;;;;;;;5031516;28;20190;-61
2021/07/15 08:16:47;;;;;;;2.63;2.20;;;;;;;;;;5020674;28;20669;-61
2021/07/15 08:19:12;;;;;;;2.53;2.40;;;;;;;;;;5022130;28;20178;-61
2021/07/15 08:21:37;;;;;;;2.90;2.70;;;;;;;;;;5024562;28;20182;-61
2021/07/15 08:24:03;;;;;;;5.57;3.17;;;;;;;;;;5028005;28;20170;-60
2021/07/15 08:26:28;;;;;;;2.95;2.85;;;;;;;;;;5023407;28;20191;-60
2021/07/15 08:28:53;;;;;;;3.70;3.40;;;;;;;;;;5017629;28;20209;-61
2021/07/15 08:31:19;;;;;;;3.00;2.90;;;;;;;;;;5016839;28;20425;-60
2021/07/15 08:33:44;;;;;;;4.05;3.42;;;;;;;;;;5027119;28;20195;-61
2021/07/15 08:36:09;;;;;;;3.50;3.30;;;;;;;;;;5022074;28;20222;-60
2021/07/15 08:38:34;;;;;;;4.18;3.80;;;;;;;;;;5018627;28;21024;-60
2021/07/15 08:41:00;;;;;;;3.40;3.17;;;;;;;;;;5016446;28;20182;-62
2021/07/15 08:43:25;;;;;;;3.00;2.90;;;;;;;;;;5026822;28;20304;-60
2021/07/15 08:45:51;;;;;;;2.93;2.83;;;;;;;;;;5007562;28;20421;-61
2021/07/15 08:48:17;;;;;;;3.08;2.95;;;;;;;;;;5023290;28;20468;-60
2021/07/15 08:50:43;;;;;;;3.10;2.75;;;;;;;;;;5009205;28;20175;-61
2021/07/15 08:53:08;;;;;;;4.83;3.00;;;;;;;;;;5020850;28;20264;-61
2021/07/15 08:58:27;;;;;;;3.40;3.20;;;;;;;;;;4965772;28;20719;-62
2021/07/15 09:00:53;;;;;;;3.30;3.17;;;;;;;;;;5017821;28;20191;-61
2021/07/15 09:03:18;;;;;;;3.37;3.07;;;;;;;;;;5025422;28;20293;-61
2021/07/15 09:05:43;;;;;;;3.23;2.80;;;;;;;;;;5027251;28;20185;-60
2021/07/15 09:08:08;;;;;;;2.43;2.20;;;;;;;;;;5040332;28;20206;-60
2021/07/15 09:10:34;;;;;;;1.88;1.77;;;;;;;;;;5018450;28;20942;-61
2021/07/15 09:13:00;;;;;;;1.83;1.73;;;;;;;;;;5025952;28;20920;-61
2021/07/15 09:15:25;;;;;;;2.85;1.70;;;;;;;;;;5033685;28;20190;-60
2021/07/15 09:17:50;;;;;;;4.25;1.58;;;;;;;;;;5023333;28;20198;-61
2021/07/15 09:20:27;;;;;;;1.73;1.63;;;;;;;;;;5026025;28;20182;-61
2021/07/15 09:23:03;;;;;;;1.83;1.73;;;;;;;;;;5026672;28;20193;-61
2021/07/15 09:25:37;;;;;;;2.92;1.83;;;;;;;;;;5016106;28;20556;-61
2021/07/15 09:28:03;;;;;;;1.88;1.70;;;;;;;;;;5027400;28;20227;-62
2021/07/15 09:30:29;;;;;;;3.53;1.80;;;;;;;;;;5025096;28;20190;-61
2021/07/15 09:32:54;;;;;;;1.60;1.50;;;;;;;;;;5021369;28;20195;-61
2021/07/15 09:35:28;;;;;;;3.63;1.63;;;;;;;;;;5024017;28;20724;-61
2021/07/15 09:37:55;;;;;;;1.50;1.40;;;;;;;;;;5017463;28;20414;-60
2021/07/15 09:40:39;;;;;;;1.60;1.50;;;;;;;;;;5017615;28;20574;-60
2021/07/15 09:43:15;;;;;;;1.58;1.48;;;;;;;;;;5009029;28;20696;-60
2021/07/15 09:45:40;;;;;;;4.82;1.65;;;;;;;;;;5025799;28;20212;-60
2021/07/15 09:48:22;;;;;;;1.50;1.40;;;;;;;;;;5013986;28;20203;-61
2021/07/15 09:50:48;;;;;;;2.35;1.95;;;;;;;;;;5024410;28;20543;-61
2021/07/15 09:53:17;;;;;;;2.30;1.80;;;;;;;;;;5016049;28;20207;-61
2021/07/15 09:55:43;;;;;;;2.00;1.90;;;;;;;;;;5015250;28;20191;-61
2021/07/15 09:58:09;;;;;;;1.95;1.75;;;;;;;;;;5027642;28;20181;-61
2021/07/15 10:00:45;;;;;;;2.38;2.17;;;;;;;;;;5017740;28;20198;-61
2021/07/15 10:03:12;;;;;;;8.85;2.88;;;;;;;;;;5021485;28;20228;-61
2021/07/15 10:05:38;;;;;;;4.43;3.00;;;;;;;;;;5008550;28;20189;-62
2021/07/15 10:08:10;;;;;;;3.13;2.85;;;;;;;;;;5026780;28;20269;-61
2021/07/15 10:10:36;;;;;;;4.35;2.65;;;;;;;;;;5024103;28;20264;-60
2021/07/15 10:13:11;;;;;;;2.72;2.53;;;;;;;;;;5026017;28;20808;-60
2021/07/15 10:15:47;;;;;;;5.05;2.33;;;;;;;;;;4991700;28;20293;-62
2021/07/15 10:20:58;;;;;;;2.85;2.33;;;;;;;;;;4975460;28;20233;-59
2021/07/15 10:23:52;;;;;;;2.83;2.55;;;;;;;;;;4977478;28;20270;-64
2021/07/15 10:26:17;;;;;;;3.10;2.60;;;;;;;;;;4966476;28;20193;-58
2021/07/15 10:28:45;;;;;;;4.93;2.30;;;;;;;;;;4964202;28;20630;-59
2021/07/15 10:31:11;;;;;;;4.15;2.40;;;;;;;;;;5003094;23;21063;-62
2021/07/15 10:33:37;;;;;;;4.53;2.05;;;;;;;;;;4979113;28;20223;-60
2021/07/15 10:36:04;;;;;;;3.57;1.90;;;;;;;;;;4968663;28;20642;-60
2021/07/15 10:38:29;;;;;;;4.20;2.17;;;;;;;;;;4986488;28;20440;-62
2021/07/15 10:40:56;;;;;;;1.90;1.80;;;;;;;;;;4988120;28;20222;-59
2021/07/15 10:43:21;;;;;;;2.05;1.90;;;;;;;;;;4993288;28;20230;-62
2021/07/15 10:45:47;;;;;;;3.00;1.87;;;;;;;;;;5010407;28;20221;-60
2021/07/15 10:48:13;;;;;;;5.43;2.25;;;;;;;;;;5007544;28;20219;-58
2021/07/15 10:50:40;;;;;;;2.05;1.95;;;;;;;;;;5005415;28;20187;-61
2021/07/15 10:53:06;;;;;;;1.95;1.85;;;;;;;;;;5001963;28;20549;-58
2021/07/15 10:55:31;;;;;;;2.20;1.92;;;;;;;;;;5006376;28;20350;-59
2021/07/15 10:57:56;;;;;;;2.30;2.10;;;;;;;;;;5007036;28;20724;-59
2021/07/15 11:00:26;;;;;;;2.10;2.00;;;;;;;;;;4997571;28;20747;-61
2021/07/15 11:03:07;;;;;;;2.55;2.30;;;;;;;;;;5008435;28;20183;-59
2021/07/15 11:05:32;;;;;;;2.67;1.90;;;;;;;;;;5002891;28;20199;-61
2021/07/15 11:07:57;;;;;;;2.83;2.07;;;;;;;;;;5008286;28;20207;-61
2021/07/15 11:10:22;;;;;;;4.03;2.00;;;;;;;;;;5009566;28;20663;-62
2021/07/15 11:12:54;;;;;;;3.53;1.90;;;;;;;;;;5005046;28;20446;-61
2021/07/15 11:15:19;;;;;;;4.47;1.80;;;;;;;;;;5005653;28;20187;-62
2021/07/15 11:17:49;;;;;;;3.83;1.90;;;;;;;;;;4993654;28;20548;-62
2021/07/15 11:20:23;;;;;;;3.13;1.73;;;;;;;;;;5007272;28;20564;-62
2021/07/15 11:22:58;;;;;;;3.90;1.80;;;;;;;;;;5004043;28;20211;-61
2021/07/15 11:25:29;;;;;;;4.65;2.00;;;;;;;;;;4999043;28;20294;-61
2021/07/15 11:27:54;;;;;;;1.75;1.65;;;;;;;;;;5003861;28;20238;-61
2021/07/15 11:30:28;;;;;;;5.03;1.63;;;;;;;;;;5009140;28;20698;-61
2021/07/15 11:32:55;;;;;;;1.60;1.40;;;;;;;;;;5007395;28;20977;-60
2021/07/15 11:35:25;;;;;;;3.00;1.75;;;;;;;;;;4989635;28;20211;-62
2021/07/15 11:38:23;;;;;;;1.88;1.60;;;;;;;;;;5009548;28;20620;-61
2021/07/15 11:40:48;;;;;;;4.45;2.00;;;;;;;;;;4959765;28;20219;-61
2021/07/15 11:43:18;;;;;;;2.60;1.50;;;;;;;;;;5003424;28;20205;-62
2021/07/15 11:46:02;;;;;;;2.20;1.58;;;;;;;;;;5008410;28;20187;-62
2021/07/15 11:48:58;;;;;;;3.58;1.60;;;;;;;;;;5007452;28;20212;-63
2021/07/15 11:51:29;;;;;;;1.65;1.50;;;;;;;;;;4984050;28;20338;-63
2021/07/15 11:54:13;;;;;;;2.70;1.60;;;;;;;;;;5008248;28;20269;-64
2021/07/15 11:56:38;;;;;;;2.17;1.80;;;;;;;;;;5007772;28;20179;-64
2021/07/15 11:59:03;;;;;;;2.13;1.65;;;;;;;;;;5008967;28;20754;-63
2021/07/15 12:01:32;;;;;;;1.93;1.70;;;;;;;;;;5011326;28;20723;-65
2021/07/15 12:04:05;;;;;;;4.25;1.92;;;;;;;;;;5013623;28;20422;-64
2021/07/15 12:06:31;;;;;;;2.80;2.00;;;;;;;;;;5012677;28;20183;-66
2021/07/15 12:09:05;;;;;;;3.00;1.90;;;;;;;;;;5018891;28;20204;-64
2021/07/15 12:11:31;;;;;;;3.28;1.70;;;;;;;;;;5013816;28;20200;-64
2021/07/15 12:13:56;;;;;;;3.35;2.20;;;;;;;;;;4996753;28;20179;-63
2021/07/15 12:16:22;;;;;;;2.80;2.00;;;;;;;;;;5013156;28;21952;-66
2021/07/15 12:18:48;;;;;;;2.10;1.90;;;;;;;;;;5004883;28;20187;-62
2021/07/15 12:21:16;;;;;;;3.33;2.00;;;;;;;;;;5004204;28;20209;-62
2021/07/15 12:23:41;;;;;;;2.20;2.00;;;;;;;;;;5010582;28;20187;-62
2021/07/15 12:26:09;;;;;;;2.63;1.98;;;;;;;;;;5016070;28;20168;-63
2021/07/15 12:28:34;;;;;;;3.22;1.80;;;;;;;;;;5002667;28;20323;-62
2021/07/15 12:31:03;;;;;;;2.35;1.92;;;;;;;;;;5017271;28;20700;-62
2021/07/15 12:33:38;;;;;;;3.42;2.03;;;;;;;;;;5013625;28;20195;-61
2021/07/15 12:36:09;;;;;;;3.47;1.90;;;;;;;;;;5016067;28;20229;-61
2021/07/15 12:38:34;;;;;;;2.58;2.00;;;;;;;;;;5015331;28;20183;-61
2021/07/15 12:41:23;;;;;;;3.83;2.20;;;;;;;;;;5015988;28;20253;-62
2021/07/15 12:43:48;;;;;;;2.10;1.90;;;;;;;;;;4987316;28;20450;-61
2021/07/15 12:46:34;;;;;;;1.95;1.75;;;;;;;;;;5013494;28;20297;-61
2021/07/15 12:49:02;;;;;;;1.90;1.80;;;;;;;;;;5005582;28;20656;-59
2021/07/15 12:51:28;;;;;;;3.30;1.95;;;;;;;;;;5012840;28;20219;-60
2021/07/15 12:53:54;;;;;;;2.25;1.85;;;;;;;;;;5005207;28;20176;-63
2021/07/15 12:56:21;;;;;;;3.50;1.92;;;;;;;;;;5018059;28;20175;-61
2021/07/15 12:58:59;;;;;;;2.65;1.83;;;;;;;;;;5014884;28;20210;-60
2021/07/15 13:01:27;;;;;;;4.28;1.80;;;;;;;;;;5006720;28;20738;-60
2021/07/15 13:04:02;;;;;;;2.42;1.73;;;;;;;;;;4988058;28;20722;-60
2021/07/15 13:06:28;;;;;;;3.38;1.70;;;;;;;;;;5016648;28;20194;-63
2021/07/15 13:09:01;;;;;;;3.13;1.63;;;;;;;;;;5003212;28;20203;-61
2021/07/15 13:14:17;;;;;;;1.77;1.67;;;;;;;;;;4973270;28;20276;-60
2021/07/15 13:16:43;;;;;;;1.60;1.50;;;;;;;;;;5011406;28;20560;-63
2021/07/15 13:19:10;;;;;;;3.42;1.65;;;;;;;;;;5006217;28;20198;-62
2021/07/15 13:21:35;;;;;;;1.55;1.45;;;;;;;;;;4991544;28;20241;-62
2021/07/15 13:24:01;;;;;;;3.70;1.50;;;;;;;;;;4981849;28;20179;-61
2021/07/15 13:26:26;;;;;;;1.80;1.60;;;;;;;;;;5010089;28;20429;-60
2021/07/15 13:28:51;;;;;;;2.40;1.60;;;;;;;;;;5010654;28;20207;-59
2021/07/15 13:31:17;;;;;;;1.53;1.40;;;;;;;;;;4995862;28;20215;-65
2021/07/15 13:33:46;;;;;;;1.83;1.60;;;;;;;;;;4985113;28;20418;-60
2021/07/15 13:36:12;;;;;;;1.83;1.33;;;;;;;;;;5007047;28;20188;-60
2021/07/15 13:38:41;;;;;;;1.50;1.40;;;;;;;;;;5008482;28;20230;-61
2021/07/15 13:41:20;;;;;;;1.50;1.40;;;;;;;;;;5008068;28;20203;-63
2021/07/15 13:43:45;;;;;;;3.35;1.67;;;;;;;;;;5002259;28;20562;-62
2021/07/15 13:46:11;;;;;;;1.58;1.48;;;;;;;;;;5005768;28;20233;-62
2021/07/15 13:48:40;;;;;;;2.55;1.50;;;;;;;;;;5007049;28;20674;-61
2021/07/15 13:51:08;;;;;;;1.33;1.25;;;;;;;;;;4983234;28;20207;-60
2021/07/15 13:53:33;;;;;;;1.40;1.30;;;;;;;;;;5000329;28;20182;-59
2021/07/15 13:55:59;;;;;;;1.52;1.27;;;;;;;;;;4990589;28;20168;-59
2021/07/15 13:58:24;;;;;;;2.30;1.38;;;;;;;;;;5007062;28;20199;-57
2021/07/15 14:00:49;;;;;;;1.30;1.20;;;;;;;;;;5009321;28;20207;-61
2021/07/15 14:03:15;;;;;;;1.30;1.20;;;;;;;;;;4995641;28;20219;-59
2021/07/15 14:05:41;;;;;;;1.35;1.27;;;;;;;;;;5008563;28;20206;-60
2021/07/15 14:08:07;;;;;;;2.38;1.45;;;;;;;;;;5005387;28;20261;-58
2021/07/15 14:10:33;;;;;;;1.10;1.10;;;;;;;;;;5001622;28;20180;-58
2021/07/15 14:12:58;;;;;;;1.42;1.33;;;;;;;;;;5010138;28;20182;-60
2021/07/15 14:15:23;;;;;;;1.40;1.30;;;;;;;;;;5007025;28;20241;-58
2021/07/15 14:18:07;;;;;;;2.05;1.15;;;;;;;;;;5009242;28;20183;-59
2021/07/15 14:20:34;;;;;;;1.52;1.42;;;;;;;;;;4997450;28;20197;-60
2021/07/15 14:22:59;;;;;;;1.50;1.33;;;;;;;;;;5004802;28;20364;-60
2021/07/15 14:25:25;;;;;;;1.23;1.20;;;;;;;;;;4998334;28;20776;-61
2021/07/15 14:27:51;;;;;;;3.53;1.23;;;;;;;;;;5009997;28;20261;-61
2021/07/15 14:30:21;;;;;;;1.40;1.30;;;;;;;;;;5009442;28;20271;-59
2021/07/15 14:32:47;;;;;;;1.50;1.20;;;;;;;;;;5007117;28;20213;-61
2021/07/15 14:35:12;;;;;;;3.83;1.50;;;;;;;;;;5005656;28;20183;-62
2021/07/15 14:37:37;;;;;;;1.30;1.17;;;;;;;;;;5000704;28;20446;-60
2021/07/15 14:40:04;;;;;;;1.30;1.20;;;;;;;;;;5005381;28;20210;-61
2021/07/15 14:42:29;;;;;;;1.42;1.13;;;;;;;;;;4997651;28;20584;-61
2021/07/15 14:44:57;;;;;;;1.27;1.17;;;;;;;;;;4992427;28;20188;-63
2021/07/15 14:47:22;;;;;;;2.70;1.35;;;;;;;;;;5003989;28;20466;-61
2021/07/15 14:49:47;;;;;;;3.13;1.40;;;;;;;;;;5005384;28;20250;-58